Time;durP1;ratioP1;P1;durP2;ratioP2;P2;SDS_P1;SDS_P2;PMS_P1;PMS_P2;Temp;Humidity;BMP_temperature;BMP_pressure;BME280_temperature;BME280_humidity;BME280_pressure;Samples;Min_cycle;Max_cycle;Signal;HPM_P1;HPM_P2
2023/07/22 00:00:03;;;;;;;8.07;3.22;;;;;;;24.25;70.70;93054.28;5069223;28;20056;-72
2023/07/22 00:02:32;;;;;;;9.43;3.60;;;;;;;24.39;70.31;93069.97;5069090;28;20049;-71
2023/07/22 00:05:00;;;;;;;8.30;3.70;;;;;;;24.46;70.91;93069.50;5068268;28;20106;-72
2023/07/22 00:07:27;;;;;;;8.30;3.45;;;;;;;24.49;70.84;93069.69;5068595;28;21046;-71
2023/07/22 00:09:54;;;;;;;8.52;3.75;;;;;;;24.52;70.98;93074.34;5068894;28;20082;-72
2023/07/22 00:12:25;;;;;;;7.53;3.35;;;;;;;24.50;70.62;93073.09;5064696;28;20173;-71
2023/07/22 00:14:52;;;;;;;7.32;3.58;;;;;;;24.34;71.28;93056.97;5068211;28;20483;-72
2023/07/22 00:17:20;;;;;;;7.60;4.20;;;;;;;24.42;71.22;93087.72;5068526;28;20575;-72
2023/07/22 00:19:47;;;;;;;10.93;4.43;;;;;;;24.34;70.95;93080.59;5067482;28;20044;-72
2023/07/22 00:22:16;;;;;;;8.88;4.28;;;;;;;24.30;72.11;93083.00;5068403;28;20094;-71
2023/07/22 00:24:42;;;;;;;7.88;3.80;;;;;;;24.21;71.41;93084.81;5067867;28;20052;-71
2023/07/22 00:27:09;;;;;;;8.40;3.45;;;;;;;24.26;72.56;93089.94;5067241;28;20052;-71
2023/07/22 00:29:36;;;;;;;8.07;4.65;;;;;;;24.14;73.87;93093.09;5068466;28;20044;-71
2023/07/22 00:32:03;;;;;;;17.58;7.43;;;;;;;23.62;75.12;93097.56;5066904;28;20048;-71
2023/07/22 00:34:30;;;;;;;19.08;7.57;;;;;;;23.25;76.73;93095.94;5064237;28;20040;-72
2023/07/22 00:36:56;;;;;;;21.90;9.15;;;;;;;22.80;79.42;93100.69;5067844;28;20494;-71
2023/07/22 00:39:24;;;;;;;21.58;7.25;;;;;;;22.66;80.54;93105.91;5068378;28;20048;-71
2023/07/22 00:41:51;;;;;;;23.38;7.03;;;;;;;22.56;80.78;93103.44;5064631;28;20048;-72
2023/07/22 00:44:18;;;;;;;20.55;7.38;;;;;;;22.65;79.22;93108.78;5067364;28;20052;-71
2023/07/22 00:46:46;;;;;;;20.42;7.57;;;;;;;22.72;79.37;93111.03;5067379;28;20044;-72
2023/07/22 00:49:15;;;;;;;17.85;7.00;;;;;;;22.74;79.74;93103.66;5067877;28;20044;-72
2023/07/22 00:51:42;;;;;;;21.23;6.07;;;;;;;22.88;78.59;93109.72;5067288;28;20056;-72
2023/07/22 00:54:09;;;;;;;20.08;7.38;;;;;;;22.93;80.36;93101.78;5068188;28;20056;-72
2023/07/22 00:56:37;;;;;;;22.05;6.70;;;;;;;22.97;79.47;93107.19;5062546;28;20498;-71
2023/07/22 00:59:05;;;;;;;18.75;7.13;;;;;;;22.95;80.51;93115.34;5065574;28;20044;-73
2023/07/22 01:01:32;;;;;;;23.27;7.13;;;;;;;22.32;83.71;93104.31;5068195;28;20044;-72
2023/07/22 01:04:00;;;;;;;20.38;6.45;;;;;;;22.28;82.86;93109.31;5066614;28;20121;-72
2023/07/22 01:06:29;;;;;;;22.10;6.60;;;;;;;22.28;82.39;93119.03;5067246;28;20040;-72
2023/07/22 01:08:57;;;;;;;19.98;6.35;;;;;;;22.29;81.59;93115.34;5067072;28;20044;-72
2023/07/22 01:11:25;;;;;;;17.67;7.30;;;;;;;22.20;82.73;93096.91;5067880;28;20048;-73
2023/07/22 01:13:57;;;;;;;17.30;5.78;;;;;;;22.27;82.37;93097.31;5063364;28;20577;-73
2023/07/22 01:16:25;;;;;;;19.38;7.47;;;;;;;22.37;81.57;93106.88;5064782;28;20044;-73
2023/07/22 01:18:54;;;;;;;25.73;7.13;;;;;;;22.40;80.50;93101.03;5064278;28;20094;-73
2023/07/22 01:21:22;;;;;;;26.45;6.88;;;;;;;22.40;81.37;93118.59;5066677;28;20052;-72
2023/07/22 01:23:51;;;;;;;20.90;8.52;;;;;;;22.32;81.72;93121.84;5067414;28;20052;-73
2023/07/22 01:26:18;;;;;;;22.58;6.65;;;;;;;22.29;82.77;93113.53;5066991;28;21127;-72
2023/07/22 01:28:45;;;;;;;24.33;8.25;;;;;;;22.21;82.10;93097.69;5067503;28;20048;-73
2023/07/22 01:31:11;;;;;;;26.90;8.88;;;;;;;22.28;82.80;93104.09;5066965;28;20044;-73
2023/07/22 01:33:39;;;;;;;22.48;7.70;;;;;;;22.23;83.33;93098.19;5067214;28;20052;-73
2023/07/22 01:36:05;;;;;;;18.48;6.40;;;;;;;;;;5066122;28;20090;-73
2023/07/22 01:38:32;;;;;;;24.65;8.13;;;;;;;22.14;83.88;93084.97;5067307;28;20134;-73
2023/07/22 01:41:00;;;;;;;25.58;8.10;;;;;;;22.16;83.74;93082.84;5066635;28;20057;-72
2023/07/22 01:43:28;;;;;;;20.05;6.20;;;;;;;22.18;84.25;93088.56;5067268;28;20382;-72
2023/07/22 01:45:54;;;;;;;15.32;6.40;;;;;;;22.16;84.09;93088.84;5066707;28;20123;-73
2023/07/22 01:48:22;;;;;;;16.00;6.20;;;;;;;22.12;84.83;93074.03;5065646;28;20044;-73
2023/07/22 01:50:48;;;;;;;13.98;6.60;;;;;;;22.04;86.10;93075.44;5066487;28;20070;-73
2023/07/22 01:53:15;;;;;;;17.38;6.25;;;;;;;21.98;86.74;93066.13;5067402;28;20044;-73
2023/07/22 01:55:42;;;;;;;16.75;6.13;;;;;;;21.98;87.04;93063.50;5066961;28;20544;-72
2023/07/22 01:58:10;;;;;;;14.18;5.65;;;;;;;21.94;88.14;93062.53;5066286;28;20052;-72
2023/07/22 02:00:37;;;;;;;16.65;6.05;;;;;;;21.83;88.29;93073.13;5065578;28;20094;-73
2023/07/22 02:03:04;;;;;;;22.70;7.82;;;;;;;21.76;88.76;93072.72;5065970;28;20858;-72
2023/07/22 02:05:31;;;;;;;14.02;5.57;;;;;;;21.72;89.24;93071.72;5066986;28;20056;-72
2023/07/22 02:07:58;;;;;;;13.45;5.72;;;;;;;21.68;90.42;93075.91;5065732;28;20493;-72
2023/07/22 02:10:25;;;;;;;14.65;6.13;;;;;;;21.59;90.85;93073.16;5066878;28;20053;-72
2023/07/22 02:12:51;;;;;;;13.80;5.45;;;;;;;21.54;92.10;93060.94;5063126;28;20044;-72
2023/07/22 02:15:21;;;;;;;16.77;6.47;;;;;;;21.44;90.65;93055.84;5067039;28;20487;-73
2023/07/22 02:17:48;;;;;;;15.98;5.25;;;;;;;21.51;90.46;93063.34;5065981;28;20048;-73
2023/07/22 02:20:15;;;;;;;16.17;6.35;;;;;;;21.47;91.35;93069.13;5066423;28;20468;-72
2023/07/22 02:22:42;;;;;;;15.05;6.47;;;;;;;21.34;92.55;93052.28;5064311;28;20061;-72
2023/07/22 02:25:10;;;;;;;14.82;6.75;;;;;;;21.18;92.20;93038.66;5066515;28;20053;-72
2023/07/22 02:27:37;;;;;;;14.85;6.85;;;;;;;21.32;93.32;93070.09;5066833;28;20394;-72
2023/07/22 02:30:04;;;;;;;14.18;5.78;;;;;;;21.28;94.04;93063.09;5066157;28;20106;-72
2023/07/22 02:32:32;;;;;;;13.75;6.53;;;;;;;21.27;94.50;93070.16;5063794;28;20052;-73
2023/07/22 02:34:59;;;;;;;11.73;5.80;;;;;;;21.30;94.50;93074.03;5066818;28;20048;-73
2023/07/22 02:37:26;;;;;;;19.88;6.25;;;;;;;21.29;94.89;93069.88;5065715;28;20094;-72
2023/07/22 02:39:54;;;;;;;11.18;4.75;;;;;;;21.18;95.21;93070.00;5065503;28;20125;-73
2023/07/22 02:42:21;;;;;;;13.80;5.80;;;;;;;21.26;95.62;93071.22;5063198;28;20091;-73
2023/07/22 02:44:48;;;;;;;14.30;6.57;;;;;;;21.21;94.77;93087.72;5065983;28;20044;-72
2023/07/22 02:47:15;;;;;;;16.27;6.65;;;;;;;21.21;95.46;93077.25;5066231;28;20118;-73
2023/07/22 02:49:43;;;;;;;13.10;5.50;;;;;;;21.20;95.97;93077.56;5066070;28;20044;-72
2023/07/22 02:52:10;;;;;;;11.48;5.85;;;;;;;21.16;96.52;93084.41;5066570;28;20098;-72
2023/07/22 02:54:41;;;;;;;15.20;6.15;;;;;;;20.98;96.18;93049.34;5066402;28;20048;-72
2023/07/22 02:57:08;;;;;;;11.43;5.05;;;;;;;21.13;96.23;93083.13;5065949;28;20076;-73
2023/07/22 02:59:35;;;;;;;14.73;6.75;;;;;;;21.14;97.11;93084.66;5066669;28;20456;-73
2023/07/22 03:02:02;;;;;;;13.93;5.38;;;;;;;21.09;96.93;93084.72;5065703;28;20107;-72
2023/07/22 03:04:30;;;;;;;18.45;6.10;;;;;;;21.01;97.72;93080.88;5066481;28;20063;-72
2023/07/22 03:06:58;;;;;;;9.57;5.68;;;;;;;21.03;97.41;93086.63;5065936;28;20254;-73
2023/07/22 03:09:24;;;;;;;14.57;5.75;;;;;;;20.99;97.86;93088.22;5065965;28;20048;-73
2023/07/22 03:11:51;;;;;;;10.55;5.07;;;;;;;20.98;97.73;93084.06;5061506;28;20776;-72
2023/07/22 03:14:18;;;;;;;12.52;5.75;;;;;;;20.98;96.69;93084.06;5066703;28;20048;-73
2023/07/22 03:16:45;;;;;;;13.48;6.25;;;;;;;20.97;97.40;93082.53;5065221;28;20120;-73
2023/07/22 03:19:12;;;;;;;10.88;5.50;;;;;;;20.94;99.16;93086.47;5067867;28;20052;-73
2023/07/22 03:21:38;;;;;;;14.60;5.90;;;;;;;20.92;98.67;93079.97;5069938;28;20536;-73
2023/07/22 03:24:07;;;;;;;10.70;5.55;;;;;;;20.87;99.79;93090.44;5067359;28;20053;-72
2023/07/22 03:26:33;;;;;;;13.73;6.00;;;;;;;20.87;99.28;93093.81;5068878;28;20063;-73
2023/07/22 03:29:00;;;;;;;11.70;5.95;;;;;;;20.81;100.00;93097.50;5069490;28;20168;-72
2023/07/22 03:31:27;;;;;;;17.33;6.80;;;;;;;20.78;100.00;93090.25;5069147;28;20602;-73
2023/07/22 03:33:53;;;;;;;19.20;6.07;;;;;;;20.78;100.00;93095.47;5069567;28;20125;-73
2023/07/22 03:36:20;;;;;;;13.65;6.07;;;;;;;20.78;100.00;93090.25;5069298;28;20135;-73
2023/07/22 03:38:47;;;;;;;26.77;7.28;;;;;;;20.77;100.00;93094.69;5069333;28;20080;-73
2023/07/22 03:41:16;;;;;;;14.35;6.30;;;;;;;20.73;100.00;93116.41;5068907;28;20084;-72
2023/07/22 03:43:43;;;;;;;17.15;7.72;;;;;;;20.73;100.00;93122.38;5067303;28;20189;-73
2023/07/22 03:46:10;;;;;;;24.10;10.70;;;;;;;20.72;100.00;93120.03;5067756;28;20078;-72
2023/07/22 03:48:36;;;;;;;17.08;9.77;;;;;;;20.71;100.00;93121.88;5068802;28;20185;-72
2023/07/22 03:51:03;;;;;;;17.20;8.40;;;;;;;20.75;100.00;93127.34;5066756;28;20979;-72
2023/07/22 03:53:30;;;;;;;16.83;7.00;;;;;;;20.75;100.00;93120.28;5068177;28;20167;-71
2023/07/22 03:55:57;;;;;;;17.27;7.00;;;;;;;20.78;100.00;93134.63;5067105;28;20049;-72
2023/07/22 03:58:25;;;;;;;12.02;6.53;;;;;;;20.80;100.00;93127.28;5066665;28;20090;-72
2023/07/22 04:00:51;;;;;;;18.60;7.32;;;;;;;20.77;100.00;93107.72;5065172;28;20627;-73
2023/07/22 04:03:18;;;;;;;13.55;6.30;;;;;;;20.68;100.00;93094.50;5062344;28;20056;-73
2023/07/22 04:05:45;;;;;;;14.02;6.55;;;;;;;20.89;100.00;93119.66;5058923;28;20055;-71
2023/07/22 04:08:12;;;;;;;13.23;6.53;;;;;;;21.01;100.00;93129.75;5063079;28;20056;-72
2023/07/22 04:10:38;;;;;;;12.75;6.00;;;;;;;21.04;100.00;93123.94;5062890;28;20122;-72
2023/07/22 04:13:05;;;;;;;21.73;7.95;;;;;;;21.06;100.00;93122.63;5063388;28;20075;-72
2023/07/22 04:15:33;;;;;;;15.07;6.70;;;;;;;21.11;100.00;93121.81;5068344;28;20074;-71
2023/07/22 04:18:05;;;;;;;21.70;7.05;;;;;;;21.09;99.90;93116.84;5066258;28;20052;-72
2023/07/22 04:20:37;;;;;;;14.43;6.78;;;;;;;21.17;99.69;93125.91;5064084;28;20040;-72
2023/07/22 04:23:04;;;;;;;17.65;6.88;;;;;;;21.17;99.67;93132.97;5060926;28;20075;-72
2023/07/22 04:25:30;;;;;;;13.75;6.13;;;;;;;21.20;100.00;93143.63;5061855;28;20575;-72
2023/07/22 04:27:57;;;;;;;15.40;6.65;;;;;;;21.10;100.00;93128.06;5062842;28;20102;-72
2023/07/22 04:30:24;;;;;;;14.50;5.85;;;;;;;21.05;100.00;93139.34;5063437;28;20083;-72
2023/07/22 04:32:52;;;;;;;15.02;6.68;;;;;;;21.12;100.00;93133.81;5063279;28;20529;-72
2023/07/22 04:35:19;;;;;;;14.57;5.90;;;;;;;21.13;100.00;93145.78;5066173;28;20052;-72
2023/07/22 04:37:46;;;;;;;18.05;7.28;;;;;;;21.22;100.00;93138.91;5066987;28;20049;-72
2023/07/22 04:40:16;;;;;;;19.83;7.53;;;;;;;21.08;100.00;93127.56;5067933;28;20048;-72
2023/07/22 04:42:42;;;;;;;14.60;7.00;;;;;;;21.38;98.98;93149.19;5059244;28;20563;-72
2023/07/22 04:45:11;;;;;;;21.25;7.97;;;;;;;21.21;100.00;93131.34;5067104;28;20060;-72
2023/07/22 04:47:38;;;;;;;22.23;6.55;;;;;;;21.38;98.38;93157.00;5066373;28;20044;-72
2023/07/22 04:50:09;;;;;;;21.95;6.35;;;;;;;21.46;96.37;93153.81;5066596;28;20037;-72
2023/07/22 04:52:35;;;;;;;17.58;6.20;;;;;;;21.51;95.52;93154.81;5062807;28;20073;-71
2023/07/22 04:55:08;;;;;;;23.30;7.18;;;;;;;21.57;95.82;93159.69;5067897;28;20468;-71
2023/07/22 04:57:35;;;;;;;23.30;8.18;;;;;;;21.56;97.26;93158.13;5067497;28;20053;-71
2023/07/22 05:00:03;;;;;;;15.57;7.10;;;;;;;21.65;96.48;93160.13;5067863;28;20048;-71
2023/07/22 05:02:30;;;;;;;24.35;9.40;;;;;;;21.71;95.37;93165.03;5067358;28;20052;-71
2023/07/22 05:04:57;;;;;;;20.35;6.18;;;;;;;21.80;94.95;93159.94;5067236;28;20045;-71
2023/07/22 05:07:26;;;;;;;26.40;7.22;;;;;;;21.78;95.36;93151.63;5063528;28;20048;-71
2023/07/22 05:09:53;;;;;;;26.20;8.20;;;;;;;21.93;94.92;93162.94;5063126;28;20127;-71
2023/07/22 05:12:20;;;;;;;24.60;7.15;;;;;;;21.99;93.55;93159.97;5063233;28;20045;-71
2023/07/22 05:14:47;;;;;;;20.48;7.20;;;;;;;21.97;92.11;93137.78;5062741;28;20044;-71
2023/07/22 05:17:13;;;;;;;18.83;6.20;;;;;;;22.23;90.94;93179.28;5067433;28;20052;-71
2023/07/22 05:19:40;;;;;;;18.48;8.75;;;;;;;22.21;91.53;93166.47;5063725;28;20465;-71
2023/07/22 05:22:07;;;;;;;20.60;7.82;;;;;;;22.29;90.24;93165.06;5062683;28;20106;-71
2023/07/22 05:24:35;;;;;;;20.65;6.78;;;;;;;22.44;90.87;93177.13;5066503;28;20497;-71
2023/07/22 05:27:01;;;;;;;19.98;6.60;;;;;;;22.53;89.54;93172.84;5066409;28;20448;-71
2023/07/22 05:29:28;;;;;;;24.58;8.20;;;;;;;22.68;88.58;93173.69;5063440;28;20047;-71
2023/07/22 05:31:55;;;;;;;23.52;6.93;;;;;;;22.78;88.17;93164.88;5067301;28;20090;-71
2023/07/22 05:34:22;;;;;;;32.17;8.63;;;;;;;23.06;87.59;93172.78;5066392;28;20105;-71
2023/07/22 05:36:48;;;;;;;29.23;8.90;;;;;;;23.26;86.73;93171.66;5066270;28;20064;-71
2023/07/22 05:39:17;;;;;;;32.67;8.85;;;;;;;23.28;85.07;93142.53;5065442;28;20052;-71
2023/07/22 05:41:45;;;;;;;24.65;8.10;;;;;;;23.62;83.79;93157.13;5066168;28;20049;-71
2023/07/22 05:44:12;;;;;;;21.52;7.97;;;;;;;23.86;83.61;93170.00;5066808;28;20048;-71
2023/07/22 05:46:39;;;;;;;33.70;8.55;;;;;;;24.06;82.91;93169.88;5065826;28;20113;-72
2023/07/22 05:49:05;;;;;;;33.45;8.63;;;;;;;24.23;81.98;93169.25;5065643;28;20044;-71
2023/07/22 05:51:32;;;;;;;31.75;8.40;;;;;;;24.42;80.84;93163.84;5065895;28;20543;-72
2023/07/22 05:53:59;;;;;;;32.40;8.10;;;;;;;24.60;80.21;93163.97;5066952;28;20110;-72
2023/07/22 05:56:25;;;;;;;32.88;8.80;;;;;;;24.76;79.24;93164.41;5066571;28;20056;-72
2023/07/22 05:58:54;;;;;;;25.85;8.98;;;;;;;24.96;79.39;93168.41;5067152;28;20045;-72
2023/07/22 06:01:21;;;;;;;26.83;7.68;;;;;;;25.14;78.42;93157.97;5065010;28;20483;-71
2023/07/22 06:03:48;;;;;;;19.63;6.80;;;;;;;25.41;77.69;93169.38;5066549;28;20045;-71
2023/07/22 06:06:15;;;;;;;31.60;7.70;;;;;;;25.68;75.93;93172.88;5065794;28;20052;-71
2023/07/22 06:08:42;;;;;;;22.83;6.93;;;;;;;25.89;76.08;93179.09;5066574;28;20053;-71
2023/07/22 06:11:08;;;;;;;37.83;9.63;;;;;;;25.82;75.25;93185.91;5065793;28;20076;-71
2023/07/22 06:13:35;;;;;;;40.72;9.48;;;;;;;25.96;75.71;93189.19;5066590;28;20049;-71
2023/07/22 06:16:03;;;;;;;24.08;7.03;;;;;;;26.15;76.06;93182.88;5065741;28;20098;-72
2023/07/22 06:18:30;;;;;;;37.72;9.02;;;;;;;26.36;74.88;93196.22;5066630;28;20118;-72
2023/07/22 06:20:57;;;;;;;22.90;7.10;;;;;;;26.48;74.67;93192.94;5065502;28;20048;-72
2023/07/22 06:23:24;;;;;;;27.50;8.80;;;;;;;26.76;72.42;93197.13;5058578;28;20049;-72
2023/07/22 06:25:51;;;;;;;22.60;7.97;;;;;;;27.04;70.58;93202.84;5065932;28;20090;-72
2023/07/22 06:28:17;;;;;;;20.55;8.27;;;;;;;27.28;70.27;93195.50;5065663;28;20134;-72
2023/07/22 06:30:44;;;;;;;19.17;6.90;;;;;;;27.64;69.42;93206.72;5065604;28;20502;-72
2023/07/22 06:33:12;;;;;;;14.38;6.85;;;;;;;27.94;68.50;93198.78;5066637;28;20049;-72
2023/07/22 06:35:39;;;;;;;18.65;7.15;;;;;;;28.22;67.48;93201.72;5066450;28;20048;-75
2023/07/22 06:38:05;;;;;;;18.35;7.22;;;;;;;28.33;66.01;93206.66;5061139;28;20044;-72
2023/07/22 06:40:32;;;;;;;18.77;6.70;;;;;;;28.26;65.95;93199.22;5065954;28;20052;-71
2023/07/22 06:42:59;;;;;;;14.48;6.53;;;;;;;28.44;64.81;93201.75;5065152;28;20044;-72
2023/07/22 06:45:26;;;;;;;17.80;6.50;;;;;;;28.54;64.75;93207.41;5061705;28;20044;-72
2023/07/22 06:47:52;;;;;;;13.85;6.13;;;;;;;28.83;64.22;93210.28;5061499;28;20048;-72
2023/07/22 06:50:21;;;;;;;17.67;6.22;;;;;;;29.11;65.05;93206.31;5065566;28;20056;-72
2023/07/22 06:52:47;;;;;;;14.65;5.80;;;;;;;29.21;63.82;93204.00;5064470;28;20670;-72
2023/07/22 06:55:14;;;;;;;13.70;5.88;;;;;;;28.75;63.70;93200.56;5069881;28;20044;-72
2023/07/22 06:57:41;;;;;;;10.45;5.55;;;;;;;29.21;64.91;93209.31;5069742;28;20056;-71
2023/07/22 07:00:09;;;;;;;11.40;5.53;;;;;;;29.68;63.86;93198.69;5068679;28;20045;-71
2023/07/22 07:02:36;;;;;;;11.38;5.40;;;;;;;30.09;62.88;93196.91;5067866;28;20047;-72
2023/07/22 07:05:03;;;;;;;11.90;4.70;;;;;;;30.39;60.80;93193.19;5067526;28;20800;-72
2023/07/22 07:07:32;;;;;;;9.27;5.75;;;;;;;30.75;59.45;93188.13;5068452;28;20509;-72
2023/07/22 07:09:59;;;;;;;12.85;4.60;;;;;;;31.01;58.31;93198.28;5069166;28;20528;-72
2023/07/22 07:12:25;;;;;;;6.70;4.60;;;;;;;31.30;58.03;93195.59;5066933;28;20044;-72
2023/07/22 07:14:52;;;;;;;12.52;5.00;;;;;;;31.53;56.45;93187.81;5069750;28;20436;-72
2023/07/22 07:17:19;;;;;;;6.95;4.25;;;;;;;31.78;54.61;93184.97;5068832;28;20098;-72
2023/07/22 07:19:46;;;;;;;14.77;5.00;;;;;;;32.04;54.18;93193.50;5068591;28;20052;-72
2023/07/22 07:22:12;;;;;;;10.75;4.63;;;;;;;32.18;53.26;93191.16;5065206;28;20048;-72
2023/07/22 07:24:40;;;;;;;5.47;3.80;;;;;;;32.30;53.01;93200.13;5069394;28;20118;-72
2023/07/22 07:27:07;;;;;;;7.60;4.68;;;;;;;32.28;53.01;93194.38;5068760;28;20052;-72
2023/07/22 07:29:34;;;;;;;8.80;4.10;;;;;;;32.45;53.04;93187.91;5069544;28;20044;-72
2023/07/22 07:32:01;;;;;;;11.07;4.55;;;;;;;32.58;52.65;93175.25;5068094;28;20036;-72
2023/07/22 07:34:27;;;;;;;11.48;5.25;;;;;;;32.76;52.72;93180.94;5069173;28;20044;-72
2023/07/22 07:36:54;;;;;;;11.63;4.50;;;;;;;32.87;51.20;93176.56;5068894;28;20498;-72
2023/07/22 07:39:21;;;;;;;7.60;3.60;;;;;;;32.93;50.57;93182.34;5069088;28;20093;-72
2023/07/22 07:41:49;;;;;;;8.13;3.83;;;;;;;33.11;50.30;93172.06;5068260;28;20135;-72
2023/07/22 07:44:16;;;;;;;5.95;3.85;;;;;;;33.28;50.17;93165.47;5068755;28;20106;-72
2023/07/22 07:46:42;;;;;;;11.50;4.70;;;;;;;33.27;50.06;93168.53;5068343;28;20513;-72
2023/07/22 07:49:09;;;;;;;9.55;4.78;;;;;;;33.54;50.00;93168.56;5069277;28;20049;-72
2023/07/22 07:51:36;;;;;;;9.20;4.25;;;;;;;33.70;49.27;93177.19;5068558;28;20041;-72
2023/07/22 07:54:04;;;;;;;6.82;3.35;;;;;;;33.82;48.33;93175.44;5068298;28;20048;-72
2023/07/22 07:56:30;;;;;;;8.45;3.53;;;;;;;33.85;47.42;93170.19;5069126;28;20472;-73
2023/07/22 07:58:59;;;;;;;9.15;4.38;;;;;;;34.10;46.44;93177.75;5068134;28;20045;-73
2023/07/22 08:01:25;;;;;;;9.63;3.83;;;;;;;34.28;46.67;93190.56;5063913;28;20049;-73
2023/07/22 08:03:52;;;;;;;10.00;4.28;;;;;;;34.31;45.91;93184.50;5068636;28;20098;-72
2023/07/22 08:06:19;;;;;;;10.13;4.18;;;;;;;34.28;46.35;93184.47;5067231;28;20106;-72
2023/07/22 08:08:46;;;;;;;7.28;3.38;;;;;;;34.28;45.96;93189.81;5068100;28;20056;-72
2023/07/22 08:11:13;;;;;;;9.65;3.92;;;;;;;34.30;45.92;93195.53;5066558;28;20064;-72
2023/07/22 08:13:41;;;;;;;8.10;3.88;;;;;;;34.28;45.68;93197.81;5068608;28;20136;-72
2023/07/22 08:16:10;;;;;;;7.57;3.53;;;;;;;34.35;45.80;93198.66;5068050;28;20090;-72
2023/07/22 08:18:38;;;;;;;7.53;4.43;;;;;;;34.36;46.04;93196.75;5068253;28;20044;-72
2023/07/22 08:21:06;;;;;;;9.52;3.65;;;;;;;34.50;45.39;93204.94;5067543;28;20105;-72
2023/07/22 08:23:33;;;;;;;5.25;2.85;;;;;;;34.62;44.79;93203.19;5067566;28;20051;-72
2023/07/22 08:26:00;;;;;;;7.00;4.15;;;;;;;34.75;44.75;93201.06;5068404;28;20169;-72
2023/07/22 08:28:27;;;;;;;6.45;3.35;;;;;;;34.78;43.96;93206.41;5067629;28;20044;-72
2023/07/22 08:30:55;;;;;;;7.40;4.00;;;;;;;34.96;43.05;93192.50;5066345;28;20044;-72
2023/07/22 08:33:24;;;;;;;11.52;3.38;;;;;;;35.13;43.01;93190.41;5067354;28;20044;-72
2023/07/22 08:35:52;;;;;;;9.90;2.97;;;;;;;35.24;42.40;93188.59;5063405;28;20040;-72
2023/07/22 08:38:19;;;;;;;7.38;3.75;;;;;;;35.20;41.86;93174.44;5067468;28;20412;-72
2023/07/22 08:40:49;;;;;;;6.20;3.28;;;;;;;35.36;42.38;93179.53;5065478;28;20560;-72
2023/07/22 08:43:18;;;;;;;6.57;2.95;;;;;;;35.41;42.41;93176.50;5067609;28;20413;-72
2023/07/22 08:45:47;;;;;;;8.07;4.05;;;;;;;35.50;41.33;93170.09;5067544;28;20053;-72
2023/07/22 08:48:18;;;;;;;10.18;4.13;;;;;;;35.33;41.14;93166.91;5067761;28;20052;-72
2023/07/22 08:50:50;;;;;;;7.28;3.50;;;;;;;35.33;41.68;93161.56;5066477;28;20131;-75
2023/07/22 08:53:19;;;;;;;8.93;4.10;;;;;;;35.14;42.08;93152.66;5067661;28;20540;-75
2023/07/22 08:55:47;;;;;;;4.65;2.80;;;;;;;35.25;41.89;93155.41;5067889;28;20110;-76
2023/07/22 08:58:15;;;;;;;4.65;2.88;;;;;;;35.32;41.99;93162.72;5067927;28;20045;-73
2023/07/22 09:00:42;;;;;;;7.45;3.33;;;;;;;35.25;41.51;93163.41;5062216;28;20079;-73
2023/07/22 09:03:09;;;;;;;6.57;3.10;;;;;;;35.27;40.95;93160.38;5066755;28;20048;-73
2023/07/22 09:05:37;;;;;;;8.18;3.33;;;;;;;35.43;40.17;93146.75;5066792;28;20094;-73
2023/07/22 09:08:07;;;;;;;11.57;4.30;;;;;;;35.45;40.69;93150.59;5067570;28;20137;-73
2023/07/22 09:10:34;;;;;;;10.63;3.53;;;;;;;35.60;41.18;93148.03;5067297;28;20052;-72
2023/07/22 09:13:01;;;;;;;5.45;3.00;;;;;;;35.54;40.76;93152.94;5066490;28;20110;-73
2023/07/22 09:15:28;;;;;;;7.90;2.70;;;;;;;35.50;40.67;93146.06;5065540;28;20390;-72
2023/07/22 09:17:55;;;;;;;12.40;3.50;;;;;;;35.31;41.11;93150.50;5061093;28;20044;-73
2023/07/22 09:20:23;;;;;;;12.93;3.47;;;;;;;35.25;40.92;93131.38;5065398;28;20048;-73
2023/07/22 09:22:51;;;;;;;7.53;3.65;;;;;;;35.44;41.65;93142.97;5066661;28;20118;-73
2023/07/22 09:25:21;;;;;;;10.23;3.60;;;;;;;35.52;40.85;93146.44;5064873;28;20053;-74
2023/07/22 09:27:48;;;;;;;7.25;2.75;;;;;;;35.66;40.61;93140.47;5061387;28;20176;-73
2023/07/22 09:30:26;;;;;;;8.52;4.30;;;;;;;35.76;40.48;93147.78;5060560;28;20087;-73
2023/07/22 09:32:55;;;;;;;7.75;3.08;;;;;;;35.89;40.64;93124.19;5061433;28;20071;-73
2023/07/22 09:35:22;;;;;;;7.82;3.15;;;;;;;35.63;40.02;93144.66;5061887;28;20987;-73
2023/07/22 09:37:49;;;;;;;10.23;3.50;;;;;;;35.78;40.33;93142.06;5061689;28;20044;-74
2023/07/22 09:40:20;;;;;;;11.43;3.58;;;;;;;36.09;39.71;93142.59;5060987;28;20068;-74
2023/07/22 09:42:47;;;;;;;10.43;3.13;;;;;;;36.32;39.52;93138.94;5061357;28;20048;-74
2023/07/22 09:45:14;;;;;;;7.18;3.00;;;;;;;36.41;38.78;93141.25;5060912;28;20049;-74
2023/07/22 09:47:42;;;;;;;7.65;2.90;;;;;;;36.54;38.71;93139.75;5060467;28;20498;-74
2023/07/22 09:50:12;;;;;;;7.95;2.80;;;;;;;36.47;39.01;93137.81;5060430;28;20048;-73
2023/07/22 09:52:52;;;;;;;8.65;2.72;;;;;;;36.66;39.00;93136.00;5061038;28;20159;-74
2023/07/22 09:55:21;;;;;;;5.82;2.65;;;;;;;36.73;39.02;93140.59;5061220;28;20082;-74
2023/07/22 09:57:51;;;;;;;9.25;3.63;;;;;;;36.31;38.65;93134.72;5060771;28;20048;-74
2023/07/22 10:00:20;;;;;;;9.02;3.88;;;;;;;36.56;38.63;93136.72;5060672;28;20048;-74
2023/07/22 10:02:49;;;;;;;10.07;3.40;;;;;;;36.74;39.32;93118.81;5060586;28;20145;-74
2023/07/22 10:05:17;;;;;;;6.45;3.25;;;;;;;37.20;38.39;93135.31;5061180;28;20048;-74
2023/07/22 10:07:47;;;;;;;7.93;3.53;;;;;;;37.16;38.18;93127.28;5059930;28;20053;-74
2023/07/22 10:10:16;;;;;;;7.53;2.63;;;;;;;37.26;38.06;93119.66;5060901;28;20048;-73
2023/07/22 10:12:45;;;;;;;11.07;3.17;;;;;;;36.85;37.99;93131.44;5060669;28;20052;-73
2023/07/22 10:15:13;;;;;;;5.25;2.97;;;;;;;36.93;37.72;93124.97;5061237;28;20152;-74
2023/07/22 10:17:40;;;;;;;5.30;2.83;;;;;;;36.76;38.22;93127.25;5060037;28;20098;-74
2023/07/22 10:20:10;;;;;;;8.60;3.58;;;;;;;36.77;38.10;93128.78;5060309;28;20052;-74
2023/07/22 10:22:37;;;;;;;11.90;3.03;;;;;;;37.07;37.83;93118.09;5060847;28;20127;-74
2023/07/22 10:25:06;;;;;;;13.63;3.10;;;;;;;37.18;36.62;93132.28;5060724;28;20158;-74
2023/07/22 10:27:33;;;;;;;8.48;4.00;;;;;;;37.00;35.34;93102.78;5061218;28;20204;-74
2023/07/22 10:30:02;;;;;;;11.73;3.50;;;;;;;37.46;37.01;93121.91;5064169;28;20134;-74
2023/07/22 10:32:33;;;;;;;11.27;3.15;;;;;;;37.40;35.90;93122.31;5064609;28;20114;-74
2023/07/22 10:35:01;;;;;;;7.25;2.63;;;;;;;37.51;36.57;93119.63;5064044;28;20097;-74
2023/07/22 10:37:31;;;;;;;7.95;3.00;;;;;;;37.60;36.86;93129.19;5064741;28;20048;-74
2023/07/22 10:40:00;;;;;;;8.05;3.35;;;;;;;37.54;34.83;93118.84;5064204;28;20071;-74
2023/07/22 10:42:27;;;;;;;8.32;2.15;;;;;;;37.67;35.42;93110.47;5064596;28;20563;-74
2023/07/22 10:44:54;;;;;;;7.05;2.70;;;;;;;37.85;35.68;93110.38;5063601;28;20057;-74
2023/07/22 10:47:34;;;;;;;6.70;2.67;;;;;;;38.08;36.17;93114.59;5063920;28;20475;-74
2023/07/22 10:50:07;;;;;;;6.07;2.33;;;;;;;38.28;35.19;93111.44;5065387;28;20052;-74
2023/07/22 10:52:45;;;;;;;10.25;3.40;;;;;;;38.44;34.86;93111.75;5064119;28;20044;-74
2023/07/22 10:55:18;;;;;;;7.70;2.45;;;;;;;38.22;34.96;93109.16;5066079;28;20068;-74
2023/07/22 10:57:54;;;;;;;8.13;2.90;;;;;;;38.53;34.49;93113.25;5067728;28;20490;-74
2023/07/22 11:00:21;;;;;;;12.85;3.05;;;;;;;38.65;32.61;93109.34;5069710;28;20052;-74
2023/07/22 11:03:10;;;;;;;7.65;2.22;;;;;;;38.82;33.18;93103.09;5068829;28;20543;-74
2023/07/22 11:05:52;;;;;;;7.50;2.80;;;;;;;38.81;33.36;93108.88;5065338;28;20041;-74
2023/07/22 11:08:38;;;;;;;8.07;2.58;;;;;;;38.55;33.14;93087.53;5067680;28;20049;-75
2023/07/22 11:11:05;;;;;;;7.68;3.35;;;;;;;38.73;32.92;93110.84;5067371;28;20090;-74
2023/07/22 11:13:38;;;;;;;7.57;2.80;;;;;;;38.99;33.35;93096.09;5069262;28;20854;-75
2023/07/22 11:16:05;;;;;;;7.07;2.97;;;;;;;38.87;32.35;93097.31;5069362;28;20052;-74
2023/07/22 11:18:40;;;;;;;9.60;2.72;;;;;;;39.08;32.14;93086.84;5068224;28;20551;-74
2023/07/22 11:21:11;;;;;;;16.10;3.65;;;;;;;39.10;32.89;93096.03;5063138;28;20080;-74
2023/07/22 11:23:38;;;;;;;9.73;2.88;;;;;;;38.46;33.13;93093.31;5064381;28;20118;-74
2023/07/22 11:26:05;;;;;;;10.25;3.30;;;;;;;38.34;33.11;93086.50;5063089;28;20228;-74
2023/07/22 11:28:32;;;;;;;9.77;2.90;;;;;;;38.50;32.88;93094.06;5062344;28;20092;-74